McAlpin, Florida
Current Conditions -  °F | °C
As of 11:15 AM on Saturday 25 Oct 2014 (Local Time) from K24J Reporting Station
Clear Clear  
Wind Chill: 70°   Ceiling: Unl
Heat Index: 70°   Visibility: 1.5mi
Dew Point: 54°   Wind: 0mph
Humidity: 56%   Direction: NA
Pressure: 30.06"   Gusts: NA
Location:  30.14°N, 82.95°W
Report Text: K24J 251515Z AUTO 00000KT 1 1/2SM CLR 21/12 A3006 RMK AO1
Loading
Personal Weather Stations






























Interactive Weather Map
Tropical Storm Tracking
New forecast layout! Learn more

10-Day Weather Forecast

Advertisements
Track Severe Weather on mobile